Time,TemperatureF,DewpointF,PressureIn,WindDirection,WindDirectionDegrees,WindSpeedMPH,WindSpeedGustMPH,Humidity,HourlyPrecipIn,Conditions,Clouds,dailyrainin,SolarRadiationWatts/m^2,SoftwareType,DateUTC
2013-12-01 00:06:00,73.5,72.0,29.90,ESE,115,1.0,2.0,95,0.00,,,0.00,0,weatherlink.com 1.10,2013-12-01 04:06:00,
2013-12-01 00:21:00,73.4,72.0,29.91,ESE,115,0.0,2.0,95,0.00,,,0.00,0,weatherlink.com 1.10,2013-12-01 04:21:00,
2013-12-01 00:36:00,73.0,72.0,29.91,ESE,115,2.0,5.0,95,0.00,,,0.00,0,weatherlink.com 1.10,2013-12-01 04:36:00,
2013-12-01 00:51:00,73.0,72.0,29.91,ESE,115,0.0,1.0,95,0.00,,,0.00,0,weatherlink.com 1.10,2013-12-01 04:51:00,
2013-12-01 01:06:00,73.0,72.0,29.91,ESE,115,0.0,1.0,95,0.01,,,0.01,0,weatherlink.com 1.10,2013-12-01 05:06:00,
2013-12-01 01:21:00,73.2,72.0,29.92,East,88,5.0,7.0,95,0.01,,,0.01,0,weatherlink.com 1.10,2013-12-01 05:21:00,
2013-12-01 01:36:00,73.4,72.0,29.91,NE,52,3.0,10.0,95,0.03,,,0.03,0,weatherlink.com 1.10,2013-12-01 05:36:00,
2013-12-01 01:51:00,73.1,72.0,29.91,East,91,6.0,8.0,95,0.04,,,0.04,0,weatherlink.com 1.10,2013-12-01 05:51:00,
2013-12-01 02:06:00,-999.0,-99.9,29.90,North,-999,-999.0,-999.0,-999,0.03,,,0.04,,weatherlink.com 1.10,2013-12-01 06:06:00,
2013-12-01 02:21:00,-999.0,-99.9,29.89,North,-999,-999.0,-999.0,-999,0.03,,,0.04,,weatherlink.com 1.10,2013-12-01 06:21:00,
2013-12-01 02:36:00,-999.0,-99.9,29.88,North,-999,-999.0,-999.0,-999,0.01,,,0.04,,weatherlink.com 1.10,2013-12-01 06:36:00,
2013-12-01 02:52:00,-999.0,-99.9,29.88,North,-999,-999.0,-999.0,-999,0.00,,,0.04,,weatherlink.com 1.10,2013-12-01 06:52:00,
2013-12-01 03:07:00,-999.0,-99.9,29.88,North,-999,-999.0,-999.0,-999,0.00,,,0.04,,weatherlink.com 1.10,2013-12-01 07:07:00,
2013-12-01 03:22:00,-999.0,-99.9,29.88,North,-999,-999.0,-999.0,-999,0.00,,,0.04,,weatherlink.com 1.10,2013-12-01 07:22:00,
2013-12-01 03:37:00,-999.0,-99.9,29.88,North,-999,-999.0,-999.0,-999,0.00,,,0.04,,weatherlink.com 1.10,2013-12-01 07:37:00,
2013-12-01 03:52:00,-999.0,-99.9,29.88,North,-999,-999.0,-999.0,-999,0.00,,,0.04,,weatherlink.com 1.10,2013-12-01 07:52:00,
2013-12-01 04:07:00,-999.0,-99.9,29.86,North,-999,-999.0,-999.0,-999,0.00,,,0.04,,weatherlink.com 1.10,2013-12-01 08:07:00,
2013-12-01 04:22:00,-999.0,-99.9,29.86,North,-999,-999.0,-999.0,-999,0.00,,,0.04,,weatherlink.com 1.10,2013-12-01 08:22:00,
2013-12-01 04:37:00,-999.0,-99.9,29.85,North,-999,-999.0,-999.0,-999,0.00,,,0.04,,weatherlink.com 1.10,2013-12-01 08:37:00,
2013-12-01 04:52:00,-999.0,-99.9,29.85,North,-999,-999.0,-999.0,-999,0.00,,,0.04,,weatherlink.com 1.10,2013-12-01 08:52:00,
2013-12-01 05:07:00,-999.0,-99.9,29.85,North,-999,-999.0,-999.0,-999,0.00,,,0.04,,weatherlink.com 1.10,2013-12-01 09:07:00,
2013-12-01 05:22:00,-999.0,-99.9,29.85,North,-999,-999.0,-999.0,-999,0.00,,,0.04,,weatherlink.com 1.10,2013-12-01 09:22:00,
2013-12-01 05:37:00,-999.0,-99.9,29.86,North,-999,-999.0,-999.0,-999,0.00,,,0.04,,weatherlink.com 1.10,2013-12-01 09:37:00,
2013-12-01 05:52:00,-999.0,-99.9,29.88,North,-999,-999.0,-999.0,-999,0.00,,,0.04,,weatherlink.com 1.10,2013-12-01 09:52:00,
2013-12-01 06:08:00,-999.0,-99.9,29.88,North,-999,-999.0,-999.0,-999,0.00,,,0.04,,weatherlink.com 1.10,2013-12-01 10:08:00,
2013-12-01 06:23:00,-999.0,-99.9,29.89,North,-999,-999.0,-999.0,-999,0.00,,,0.04,,weatherlink.com 1.10,2013-12-01 10:23:00,
2013-12-01 06:38:00,-999.0,-99.9,29.89,North,-999,-999.0,-999.0,-999,0.00,,,0.04,,weatherlink.com 1.10,2013-12-01 10:38:00,
2013-12-01 06:53:00,-999.0,-99.9,29.89,North,-999,-999.0,-999.0,-999,0.00,,,0.04,,weatherlink.com 1.10,2013-12-01 10:53:00,
2013-12-01 07:08:00,-999.0,-99.9,29.88,North,-999,-999.0,-999.0,-999,0.00,,,0.04,,weatherlink.com 1.10,2013-12-01 11:08:00,
2013-12-01 07:23:00,73.2,72.0,29.88,ESE,107,1.0,2.0,96,0.00,,,0.04,,weatherlink.com 1.10,2013-12-01 11:23:00,
2013-12-01 07:38:00,72.8,71.0,29.89,ESE,123,3.0,7.0,95,0.00,,,0.04,33,weatherlink.com 1.10,2013-12-01 11:38:00,
2013-12-01 07:53:00,72.7,71.0,29.90,SE,127,5.0,7.0,94,0.00,,,0.04,32,weatherlink.com 1.10,2013-12-01 11:53:00,
2013-12-01 08:08:00,73.6,72.0,29.90,ESE,121,4.0,10.0,93,0.00,,,0.04,35,weatherlink.com 1.10,2013-12-01 12:08:00,
2013-12-01 08:23:00,74.5,72.0,29.89,SE,124,3.0,10.0,91,0.00,,,0.04,276,weatherlink.com 1.10,2013-12-01 12:23:00,
2013-12-01 08:38:00,75.8,73.0,29.89,SE,136,1.0,8.0,90,0.00,,,0.04,422,weatherlink.com 1.10,2013-12-01 12:38:00,
2013-12-01 08:53:00,77.3,74.0,29.90,SE,140,1.0,7.0,88,0.00,,,0.04,429,weatherlink.com 1.10,2013-12-01 12:53:00,
2013-12-01 09:08:00,78.3,74.0,29.91,ESE,109,4.0,9.0,85,0.00,,,0.04,446,weatherlink.com 1.10,2013-12-01 13:08:00,
2013-12-01 09:23:00,79.4,74.0,29.91,SE,129,1.0,5.0,83,0.00,,,0.04,485,weatherlink.com 1.10,2013-12-01 13:23:00,
2013-12-01 09:38:00,80.9,74.0,29.91,SE,129,1.0,6.0,79,0.00,,,0.04,512,weatherlink.com 1.10,2013-12-01 13:38:00,
2013-12-01 09:53:00,81.7,73.0,29.92,ESE,113,0.0,5.0,75,0.00,,,0.04,127,weatherlink.com 1.10,2013-12-01 13:53:00,
2013-12-01 10:08:00,81.3,74.0,29.93,ESE,122,0.0,4.0,78,0.00,,,0.04,146,weatherlink.com 1.10,2013-12-01 14:08:00,
2013-12-01 10:23:00,80.2,74.0,29.93,ESE,123,3.0,5.0,80,0.00,,,0.04,155,weatherlink.com 1.10,2013-12-01 14:23:00,
2013-12-01 10:38:00,81.3,75.0,29.92,ENE,70,2.0,4.0,80,0.00,,,0.04,97,weatherlink.com 1.10,2013-12-01 14:38:00,
2013-12-01 10:53:00,81.9,74.0,29.92,NNE,18,0.0,5.0,76,0.00,,,0.04,107,weatherlink.com 1.10,2013-12-01 14:53:00,
2013-12-01 11:09:00,81.2,73.0,29.92,North,5,3.0,5.0,77,0.00,,,0.04,229,weatherlink.com 1.10,2013-12-01 15:09:00,
2013-12-01 11:24:00,80.8,74.0,29.92,NNW,331,1.0,5.0,79,0.00,,,0.04,742,weatherlink.com 1.10,2013-12-01 15:24:00,
2013-12-01 11:39:00,81.6,74.0,29.91,NW,311,4.0,7.0,77,0.00,,,0.04,144,weatherlink.com 1.10,2013-12-01 15:39:00,
2013-12-01 11:54:00,81.6,74.0,29.90,NNW,333,2.0,6.0,78,0.00,,,0.04,947,weatherlink.com 1.10,2013-12-01 15:54:00,
2013-12-01 12:09:00,82.8,75.0,29.90,NW,322,1.0,7.0,78,0.00,,,0.04,872,weatherlink.com 1.10,2013-12-01 16:09:00,
2013-12-01 12:24:00,83.0,75.0,29.89,NNW,342,0.0,9.0,77,0.00,,,0.04,248,weatherlink.com 1.10,2013-12-01 16:24:00,
2013-12-01 12:39:00,84.4,76.0,29.88,NE,52,7.0,12.0,76,0.00,,,0.04,719,weatherlink.com 1.10,2013-12-01 16:39:00,
2013-12-01 12:54:00,83.8,75.0,29.87,ENE,67,4.0,10.0,74,0.00,,,0.04,740,weatherlink.com 1.10,2013-12-01 16:54:00,
2013-12-01 13:09:00,84.3,74.0,29.87,NE,55,6.0,11.0,72,0.00,,,0.04,714,weatherlink.com 1.10,2013-12-01 17:09:00,
2013-12-01 13:24:00,83.6,75.0,29.86,East,79,6.0,9.0,74,0.00,,,0.04,729,weatherlink.com 1.10,2013-12-01 17:24:00,
2013-12-01 13:39:00,84.7,75.0,29.86,ENE,74,3.0,10.0,72,0.00,,,0.04,812,weatherlink.com 1.10,2013-12-01 17:39:00,
2013-12-01 13:54:00,86.0,76.0,29.86,NE,44,8.0,13.0,71,0.00,,,0.04,642,weatherlink.com 1.10,2013-12-01 17:54:00,
2013-12-01 14:09:00,84.7,75.0,29.85,NE,50,4.0,9.0,73,0.00,,,0.04,239,weatherlink.com 1.10,2013-12-01 18:09:00,
2013-12-01 14:24:00,82.9,76.0,29.85,ENE,69,2.0,10.0,79,0.00,,,0.04,218,weatherlink.com 1.10,2013-12-01 18:24:00,
2013-12-01 14:39:00,81.3,76.0,29.84,ENE,68,4.0,8.0,83,0.00,,,0.04,139,weatherlink.com 1.10,2013-12-01 18:39:00,
2013-12-01 14:54:00,80.0,74.0,29.85,East,82,6.0,8.0,81,0.00,,,0.04,113,weatherlink.com 1.10,2013-12-01 18:54:00,
2013-12-01 15:09:00,80.2,75.0,29.85,ENE,63,8.0,10.0,83,0.00,,,0.04,118,weatherlink.com 1.10,2013-12-01 19:09:00,
2013-12-01 15:24:00,79.9,75.0,29.84,East,94,7.0,13.0,85,0.00,,,0.04,118,weatherlink.com 1.10,2013-12-01 19:24:00,
2013-12-01 15:39:00,79.3,75.0,29.85,ENE,76,4.0,14.0,85,0.00,,,0.04,37,weatherlink.com 1.10,2013-12-01 19:39:00,
2013-12-01 15:54:00,78.9,74.0,29.86,SSE,150,7.0,12.0,85,0.00,,,0.04,32,weatherlink.com 1.10,2013-12-01 19:54:00,
2013-12-01 16:09:00,78.6,74.0,29.86,ESE,117,8.0,14.0,85,0.00,,,0.04,25,weatherlink.com 1.10,2013-12-01 20:09:00,
2013-12-01 16:24:00,78.6,73.0,29.86,ESE,119,7.0,13.0,84,0.00,,,0.04,21,weatherlink.com 1.10,2013-12-01 20:24:00,
2013-12-01 16:39:00,77.7,71.0,29.86,East,88,7.0,13.0,80,0.00,,,0.04,19,weatherlink.com 1.10,2013-12-01 20:39:00,
2013-12-01 16:54:00,77.6,71.0,29.86,SSE,149,2.0,10.0,80,0.00,,,0.04,12,weatherlink.com 1.10,2013-12-01 20:54:00,
2013-12-01 17:09:00,76.9,70.0,29.86,SE,143,3.0,11.0,80,0.01,,,0.05,7,weatherlink.com 1.10,2013-12-01 21:09:00,
2013-12-01 17:24:00,76.6,71.0,29.86,SSE,155,1.0,6.0,82,0.01,,,0.05,5,weatherlink.com 1.10,2013-12-01 21:24:00,
2013-12-01 17:39:00,75.8,70.0,29.85,SE,144,3.0,10.0,83,0.01,,,0.05,0,weatherlink.com 1.10,2013-12-01 21:39:00,
2013-12-01 17:54:00,75.8,71.0,29.86,ESE,117,0.0,10.0,85,0.01,,,0.05,0,weatherlink.com 1.10,2013-12-01 21:54:00,
2013-12-01 18:09:00,75.7,72.0,29.86,SE,135,2.0,8.0,87,0.00,,,0.05,0,weatherlink.com 1.10,2013-12-01 22:09:00,
2013-12-01 18:24:00,75.3,72.0,29.86,SE,143,0.0,9.0,89,0.00,,,0.05,0,weatherlink.com 1.10,2013-12-01 22:24:00,
2013-12-01 18:39:00,75.2,72.0,29.86,SSE,167,1.0,5.0,90,0.00,,,0.05,0,weatherlink.com 1.10,2013-12-01 22:39:00,
2013-12-01 18:54:00,74.7,71.0,29.86,SSE,167,1.0,7.0,89,0.00,,,0.05,0,weatherlink.com 1.10,2013-12-01 22:54:00,
2013-12-01 19:09:00,74.4,71.0,29.87,SSE,167,0.0,4.0,89,0.00,,,0.05,0,weatherlink.com 1.10,2013-12-01 23:09:00,
2013-12-01 19:24:00,74.4,71.0,29.87,SSE,167,0.0,2.0,89,0.00,,,0.05,0,weatherlink.com 1.10,2013-12-01 23:24:00,
2013-12-01 19:39:00,74.2,71.0,29.89,SSE,167,0.0,2.0,89,0.00,,,0.05,0,weatherlink.com 1.10,2013-12-01 23:39:00,
2013-12-01 19:54:00,74.0,71.0,29.89,SSE,167,1.0,1.0,89,0.00,,,0.05,0,weatherlink.com 1.10,2013-12-01 23:54:00,
2013-12-01 20:09:00,74.2,71.0,29.89,SSE,167,0.0,2.0,90,0.00,,,0.05,0,weatherlink.com 1.10,2013-12-02 00:09:00,
2013-12-01 20:24:00,74.1,71.0,29.89,SSE,167,0.0,0.0,90,0.00,,,0.05,0,weatherlink.com 1.10,2013-12-02 00:24:00,
2013-12-01 20:39:00,73.8,71.0,29.90,SSE,167,0.0,1.0,90,0.00,,,0.05,0,weatherlink.com 1.10,2013-12-02 00:39:00,
2013-12-01 20:54:00,74.0,71.0,29.90,SSE,167,0.0,3.0,90,0.00,,,0.05,0,weatherlink.com 1.10,2013-12-02 00:54:00,
2013-12-01 21:09:00,74.2,71.0,29.91,SSE,167,0.0,3.0,90,0.00,,,0.05,0,weatherlink.com 1.10,2013-12-02 01:09:00,
2013-12-01 21:24:00,74.7,72.0,29.91,SSE,167,2.0,3.0,90,0.00,,,0.05,0,weatherlink.com 1.10,2013-12-02 01:24:00,
2013-12-01 21:39:00,75.0,72.0,29.91,SSE,167,0.0,3.0,89,0.00,,,0.05,0,weatherlink.com 1.10,2013-12-02 01:39:00,
2013-12-01 21:54:00,74.9,72.0,29.91,SSE,167,0.0,1.0,89,0.00,,,0.05,0,weatherlink.com 1.10,2013-12-02 01:54:00,
2013-12-01 22:09:00,74.9,72.0,29.91,SSE,167,2.0,2.0,89,0.00,,,0.05,0,weatherlink.com 1.10,2013-12-02 02:09:00,
2013-12-01 22:24:00,75.0,72.0,29.91,SSE,167,1.0,4.0,89,0.00,,,0.05,0,weatherlink.com 1.10,2013-12-02 02:24:00,
2013-12-01 22:39:00,75.0,71.0,29.91,SSE,167,0.0,2.0,88,0.00,,,0.05,0,weatherlink.com 1.10,2013-12-02 02:39:00,
2013-12-01 22:54:00,75.0,71.0,29.91,SSE,167,1.0,3.0,88,0.00,,,0.05,0,weatherlink.com 1.10,2013-12-02 02:54:00,
2013-12-01 23:09:00,75.2,72.0,29.91,SSE,167,0.0,2.0,88,0.00,,,0.05,0,weatherlink.com 1.10,2013-12-02 03:09:00,
2013-12-01 23:24:00,75.3,72.0,29.91,SSE,167,0.0,1.0,88,0.00,,,0.05,0,weatherlink.com 1.10,2013-12-02 03:24:00,
2013-12-01 23:39:00,75.3,72.0,29.90,SSE,167,4.0,4.0,88,0.00,,,0.05,0,weatherlink.com 1.10,2013-12-02 03:39:00,
2013-12-01 23:54:00,75.2,72.0,29.90,ESE,121,4.0,8.0,89,0.00,,,0.05,0,weatherlink.com 1.10,2013-12-02 03:54:00,